Carson Valley, Nevada Weather observations

Data are for 10 minute period ending at time listed.
 Day   Time   Solar   Ave.   Ave.  Ave.  Vector  Max.   Baro.   Total    
  of    of     Rad.   Air    Rel.  Wind   Wind   Wind  Press.  Precip.   
Year   Day            Temp.  Hum.  Speed  Dir.   Gust                    
2016   (PST)  Kw/m2    F      %     mph   deg.    mph    mb.     in.     
-------------------------------------------------------------------------
 267   14:00   0.58   66.8    22    1.4   359     3.1   860.5    0.00 
 267   14:10   0.55   68.0    22    2.7    82     5.9   860.4    0.00 
 267   14:20   0.48   67.1    21    3.8   161     6.2   860.3    0.00 
 267   14:30   0.22   66.2    20    1.3   298     2.9   860.3    0.00 
 267   14:40   0.21   65.7    20    1.6   329     2.6   860.3    0.00 
 267   14:50   0.24   66.3    19    0.7    40     2.3   860.3    0.00 
 267   15:00   0.32   66.8    20    1.7   334     3.4   860.3    0.00 
 267   15:10   0.28   66.6    20    2.5   261     4.8   860.3    0.00 
 267   15:20   0.46   67.2    20    2.9   252     5.2   860.3    0.00 
 267   15:30   0.33   68.2    18    2.1   308     4.7   860.4    0.00 
 267   15:40   0.38   67.7    18    2.8   295     4.7   860.4    0.00 
 267   15:50   0.37   69.4    17    1.3   200     2.9   860.4    0.00 
 267   16:00   0.30   69.7    17    2.1   226     4.3   860.4    0.00 
 267   16:10   0.29   68.6    18    3.2   230     5.3   860.3    0.00 
 267   16:20   0.27   68.3    19    3.8   230     5.3   860.4    0.00 
 267   16:30   0.23   68.3    19    3.0   238     4.5   860.4    0.00 
 267   16:40   0.20   68.1    21    3.4   276     4.7   860.6    0.00 
 267   16:50   0.06   64.3    28    5.3   278     7.0   860.7    0.00 
 267   17:00   0.03   59.0    36    4.8   270     5.6   860.6    0.00 
 267   17:10   0.05   56.9    42    4.0   244     5.3   860.5    0.00 
 267   17:20   0.02   57.2    38    3.6   262     4.5   860.3    0.00 
 267   17:30   0.02   57.3    35    4.1   273     4.8   860.2    0.00 
 267   17:40   0.01   55.1    40    4.5   283     6.5   860.3    0.00 
 267   17:50   0.01   56.8    36    3.9   290     6.5   860.4    0.00 
 267   18:00   0.00   54.1    42    3.9   314     6.9   860.4    0.00 
 267   18:10   0.00   51.8    50    5.0   325     5.6   860.5    0.00 
 267   18:20   0.00   51.0    50    5.0   332     6.0   860.5    0.00 
 267   18:30   0.00   52.4    46    3.5   313     4.9   860.3    0.00 
 267   18:40   0.00   51.9    47    2.9   281     3.4   860.2    0.00 
 267   18:50   0.00   53.8    40    3.7   292     5.1   860.3    0.00 
 267   19:00   0.00   51.0    46    3.3    35     8.8   860.5    0.00 
 267   19:10   0.00   47.4    53    2.6    96     3.9   860.7    0.00 
 267   19:20   0.00   48.7    50    1.8    96     2.8   860.8    0.00 
 267   19:30   0.00   48.1    52    2.4   195     6.4   860.9    0.00 
 267   19:40   0.00   45.4    60    1.6   209     4.9   860.9    0.00 
 267   19:50   0.00   48.3    52    0.0     0     0.0   860.8    0.00 
 267   20:00   0.00   48.3    53    2.7   178     6.0   860.8    0.00 
 267   20:10   0.00   44.4    65    5.3   150     6.6   861.0    0.00 
 267   20:20   0.00   43.2    68    4.7   125     6.0   861.0    0.00 
 267   20:30   0.00   43.2    66    3.6   127     4.2   861.0    0.00 
 267   20:40   0.00   44.1    63    3.7   146     4.5   861.0    0.00 
 267   20:50   0.00   43.1    66    3.1   210     5.8   861.0    0.00 
 267   21:00   0.00   40.8    72    3.0   270     3.6   861.1    0.00 
 267   21:10   0.00   41.3    68    2.3    10     5.3   861.2    0.00 
 267   21:20   0.00   40.2    71    2.7    85     4.2   861.3    0.00 
 267   21:30   0.00   41.9    68    3.6   104     4.7   861.4    0.00 
 267   21:40   0.00   39.7    70    3.7    88     4.4   861.5    0.00 
 267   21:50   0.00   38.1    73    2.5    65     4.9   861.7    0.00 
 267   22:00   0.00   38.6    73    3.6   300     5.6   861.8    0.00 
 267   22:10   0.00   36.9    79    3.8   299     4.7   861.9    0.00 
 267   22:20   0.00   36.9    79    1.2    65     2.4   862.1    0.00 
 267   22:30   0.00   37.9    78    0.1   334     1.3   862.2    0.00 
 267   22:40   0.00   40.0    72    1.6   166     2.9   862.2    0.00 
 267   22:50   0.00   39.4    73    2.7   170     3.8   862.3    0.00 
 267   23:00   0.00   36.6    81    1.6   157     2.9   862.5    0.00 
 267   23:10   0.00   37.4    80    1.0   218     2.3   862.5    0.00 
 267   23:20   0.00   36.6    82    1.8   149     2.5   862.5    0.00 
 267   23:30   0.00   38.5    79    2.8   119     3.9   862.7    0.00 
 267   23:40   0.00   38.5    75    3.9   128     4.7   862.7    0.00 
 267   23:50   0.00   39.6    66    4.2   140     5.0   862.9    0.00 
 268    0:00   0.00   36.0    76    3.4   303     5.6   863.1    0.00 
 268    0:10   0.00   34.6    82    1.5   198     3.4   863.2    0.00 
 268    0:20   0.00   33.5    84    2.0   138     3.7   863.2    0.00 
 268    0:30   0.00   34.1    83    2.4   142     5.7   863.4    0.00 
 268    0:40   0.00   32.4    84    2.0   162     4.6   863.5    0.00 
 268    0:50   0.00   30.5    86    3.6   282     6.1   863.5    0.00 
 268    1:00   0.00   31.0    90    2.7   268     4.2   863.6    0.00 
 268    1:10   0.00   33.2    88    2.2   197     5.6   863.6    0.00 
 268    1:20   0.00   33.7    83    2.0   116     5.8   863.6    0.00 
 268    1:30   0.00   34.7    82    1.2   159     2.3   863.7    0.00 
 268    1:40   0.00   35.0    79    2.3   204     3.5   863.5    0.00 
 268    1:50   0.00   33.5    82    1.6   203     3.7   863.4    0.00 
 268    2:00   0.00   31.3    83    2.9    74     4.7   863.4    0.00 
 268    2:10   0.00   30.6    85    2.7   352     5.1   863.7    0.00 
 268    2:20   0.00   30.5    87    1.7     7     3.1   863.7    0.00 
 268    2:30   0.00   30.4    88    2.2   263     3.5   863.6    0.00 
 268    2:40   0.00   31.7    88    1.6   174     3.1   863.7    0.00 
 268    2:50   0.00   32.8    88    1.3   195     2.7   863.5    0.00 
 268    3:00   0.00   32.1    86    4.2   244     5.2   863.4    0.00 
 268    3:10   0.00   30.4    89    2.9   269     4.0   863.4    0.00 
 268    3:20   0.00   31.0    90    1.1   214     3.4   863.4    0.00 
 268    3:30   0.00   31.2    90    0.8    90     3.1   863.4    0.00 
 268    3:40   0.00   30.6    88    2.9    40     5.3   863.6    0.00 
 268    3:50   0.00   29.2    88    1.9     7     3.2   863.7    0.00 
 268    4:00   0.00   29.0    88    1.3   313     3.3   863.7    0.00 
 268    4:10   0.00   28.6    89    2.7    47     5.6   863.8    0.00 
 268    4:20   0.00   28.7    88    3.9    76     4.6   864.0    0.00 
 268    4:30   0.00   29.0    86    2.5    65     3.0   864.3    0.00 
 268    4:40   0.00   29.3    83    1.4    83     2.3   864.3    0.00 
 268    4:50   0.00   28.3    84    2.9   196     5.8   864.4    0.00 
 268    5:00   0.00   29.3    88    4.5   185     6.0   864.5    0.00 
 268    5:10   0.00   29.1    90    3.6   171     4.7   864.5    0.00 
 268    5:20   0.00   28.7    90    3.1   208     5.3   864.7    0.00 
 268    5:30   0.00   28.7    91    4.2   199     6.2   864.9    0.00 
 268    5:40   0.00   29.3    90    3.0   210     5.0   864.9    0.00 
 268    5:50   0.00   29.1    89    2.6   132     3.8   865.0    0.00 
 268    6:00   0.01   28.9    90    1.4   179     2.8   864.9    0.00 
 268    6:10   0.02   29.5    90    2.1   230     3.4   864.9    0.00 
 268    6:20   0.06   30.0    88    1.2    52     2.9   865.1    0.00 
 268    6:30   0.09   30.9    86    0.9    16     2.5   865.3    0.00 
 268    6:40   0.12   33.6    84    1.8    39     2.9   865.3    0.00 
 268    6:50   0.15   36.1    80    0.8    31     1.2   865.4    0.00 
 268    7:00   0.18   38.1    77    1.2    41     2.1   865.4    0.00 
 268    7:10   0.21   40.3    73    1.7    67     2.4   865.3    0.00 
 268    7:20   0.24   42.4    69    2.3    68     3.3   865.3    0.00 
 268    7:30   0.28   43.9    65    2.6    76     3.4   865.3    0.00 
 268    7:40   0.31   46.3    60    1.2   109     2.4   865.2    0.00 
 268    7:50   0.35   47.7    58    1.3   224     2.6   865.3    0.00 
 268    8:00   0.38   46.7    63    2.9   238     5.0   865.1    0.00 
 268    8:10   0.41   48.1    61    2.9   192     6.4   865.2    0.00 
 268    8:20   0.44   50.7    54    3.3   170     5.3   865.1    0.00 
 268    8:30   0.47   51.8    51    3.3   186     5.3   865.1    0.00 
 268    8:40   0.50   53.0    48    1.4   203     4.9   865.2    0.00 
 268    8:50   0.53   54.8    45    1.2   259     3.0   865.3    0.00 
 268    9:00   0.56   54.8    44    1.7   287     3.7   865.4    0.00 
 268    9:10   0.59   56.5    42    2.3     4     4.7   865.6    0.00 
 268    9:20   0.61   57.8    40    1.6     8     3.9   865.7    0.00 
 268    9:30   0.64   59.2    41    1.7     6     4.5   865.7    0.00 
 268    9:40   0.66   60.7    39    2.5    14     5.6   865.8    0.00 
 268    9:50   0.68   61.1    41    2.3    29     5.3   865.8    0.00 
 268   10:00   0.70   62.1    39    2.3    22     5.3   865.7    0.00 
 268   10:10   0.72   62.3    40    2.5   324     6.1   865.8    0.00 
 268   10:20   0.73   62.9    39    2.4   338     5.3   865.7    0.00 
 268   10:30   0.75   62.8    39    2.9   285     5.2   865.7    0.00 
 268   10:40   0.76   64.8    38    2.1   267     5.3   865.7    0.00 
 268   10:50   0.77   65.6    37    2.7    63     5.9   865.7    0.00 
 268   11:00   0.78   65.3    36    4.4   285     8.0   865.7    0.00 
 268   11:10   0.79   65.6    35    4.4   306     7.4   865.6    0.00 
 268   11:20   0.80   66.1    33    3.8   309     6.3   865.6    0.00 
 268   11:30   0.80   66.0    33    2.5   300     6.4   865.5    0.00 
 268   11:40   0.81   68.3    31    2.9   162     6.7   865.3    0.00 
 268   11:50   0.77   68.7    32    3.1   122     7.5   865.3    0.00 
 268   12:00   0.73   67.9    31    4.4   117     9.1   865.3    0.00 
 268   12:10   0.80   68.6    29    1.6     3     4.5   865.3    0.00 
 268   12:20   0.80   68.7    28    3.2   252     6.6   865.2    0.00 
 268   12:30   0.79   70.3    28    3.4   245     8.2   865.2    0.00 
 268   12:40   0.79   70.4    27    2.2   296     6.6   865.2    0.00 
 268   12:50   0.78   71.4    25    3.1    21     6.9   865.0    0.00 
 268   13:00   0.76   71.3    25    2.3    86     6.5   864.9    0.00 
 268   13:10   0.75   71.5    25    2.1   125     6.6   864.8    0.00 
 268   13:20   0.74   72.6    24    2.7   317     5.3   864.8    0.00 
 268   13:30   0.72   72.8    25    4.0    38     7.4   864.7    0.00 
 268   13:40   0.70   72.9    24    4.3   348    11.4   864.5    0.00 
 268   13:50   0.68   72.4    22    4.8   333     8.3   864.4    0.00 

Return to Carson Valley graphs page.


Western Regional Climate Center,wrcc@dri.edu